createdAt,value
2017-09-17T00:02:26.944Z,9.80
2017-09-17T00:04:56.084Z,10.40
2017-09-17T00:07:25.899Z,8.70
2017-09-17T00:09:56.164Z,10.40
2017-09-17T00:12:26.443Z,9.80
2017-09-17T00:14:55.607Z,10.30
2017-09-17T00:17:25.266Z,10.60
2017-09-17T00:19:54.554Z,11.20
2017-09-17T00:22:24.846Z,11.00
2017-09-17T00:24:54.047Z,11.00
2017-09-17T00:27:24.266Z,11.10
2017-09-17T00:29:53.246Z,11.70
2017-09-17T00:32:23.028Z,11.40
2017-09-17T00:34:52.556Z,11.50
2017-09-17T00:37:24.261Z,11.50
2017-09-17T00:39:54.316Z,11.50
2017-09-17T00:42:23.632Z,11.40
2017-09-17T00:44:52.989Z,11.20
2017-09-17T00:47:22.066Z,11.90
2017-09-17T00:49:51.681Z,11.60
2017-09-17T00:52:23.369Z,11.50
2017-09-17T00:54:56.576Z,11.90
2017-09-17T00:57:26.512Z,11.80
2017-09-17T00:59:56.234Z,12.20
2017-09-17T01:02:25.517Z,11.70
2017-09-17T01:04:56.187Z,12.30
2017-09-17T01:07:25.655Z,12.30
2017-09-17T01:09:54.973Z,12.40
2017-09-17T01:12:26.222Z,11.80
2017-09-17T01:14:56.289Z,11.70
2017-09-17T01:17:27.353Z,12.30
2017-09-17T01:19:57.637Z,12.60
2017-09-17T01:22:29.284Z,13.10
2017-09-17T01:24:59.743Z,13.30
2017-09-17T01:27:29.988Z,13.30
2017-09-17T01:29:59.471Z,14.50
2017-09-17T01:32:29.052Z,14.60
2017-09-17T01:34:58.363Z,14.60
2017-09-17T01:37:27.593Z,15.50
2017-09-17T01:39:56.763Z,15.70
2017-09-17T01:42:26.917Z,16.50
2017-09-17T01:44:56.202Z,16.40
2017-09-17T01:47:25.475Z,16.30
2017-09-17T01:49:54.560Z,16.70
2017-09-17T01:52:23.517Z,17.10
2017-09-17T01:54:52.271Z,17.80
2017-09-17T01:57:22.284Z,18.40
2017-09-17T01:59:51.462Z,18.30
2017-09-17T02:02:23.230Z,18.80
2017-09-17T02:04:53.320Z,18.90
2017-09-17T02:07:23.282Z,18.90
2017-09-17T02:09:52.423Z,18.70
2017-09-17T02:12:22.176Z,18.90
2017-09-17T02:14:51.718Z,18.90
2017-09-17T02:17:20.436Z,19.70
2017-09-17T02:19:50.116Z,20.00
2017-09-17T02:22:19.781Z,20.80
2017-09-17T02:24:50.609Z,21.30
2017-09-17T02:27:19.302Z,21.20
2017-09-17T02:29:49.216Z,21.50
2017-09-17T02:32:19.474Z,21.90
2017-09-17T02:34:49.757Z,21.70
2017-09-17T02:37:19.628Z,21.90
2017-09-17T02:39:48.375Z,22.30
2017-09-17T02:42:18.519Z,23.50
2017-09-17T02:44:48.265Z,23.40
2017-09-17T02:47:19.068Z,24.00
2017-09-17T02:49:48.746Z,24.00
2017-09-17T02:52:18.361Z,24.70
2017-09-17T02:54:48.120Z,24.70
2017-09-17T02:57:17.687Z,24.90
2017-09-17T02:59:47.099Z,25.10
2017-09-17T03:02:17.196Z,25.20
2017-09-17T03:04:47.669Z,25.30
2017-09-17T03:07:17.217Z,25.20
2017-09-17T03:09:47.350Z,25.40
2017-09-17T03:12:17.060Z,25.30
2017-09-17T03:14:46.697Z,25.70
2017-09-17T03:17:16.397Z,25.70
2017-09-17T03:19:45.677Z,25.80
2017-09-17T03:22:15.663Z,26.40
2017-09-17T03:24:45.876Z,26.40
2017-09-17T03:27:15.074Z,26.60
2017-09-17T03:29:45.144Z,26.60
2017-09-17T03:32:15.629Z,26.50
2017-09-17T03:34:45.121Z,26.50
2017-09-17T03:37:14.481Z,26.60
2017-09-17T03:39:44.768Z,26.30
2017-09-17T03:42:14.518Z,26.20
2017-09-17T03:44:43.973Z,25.40
2017-09-17T03:47:13.803Z,25.80
2017-09-17T03:49:44.261Z,25.30
2017-09-17T03:52:13.657Z,26.10
2017-09-17T03:54:43.193Z,25.90
2017-09-17T03:57:13.131Z,25.40
2017-09-17T03:59:42.415Z,24.90
2017-09-17T04:02:12.024Z,25.30
2017-09-17T04:04:41.823Z,25.20
2017-09-17T04:07:11.121Z,24.40
2017-09-17T04:09:40.212Z,25.10
2017-09-17T04:12:10.654Z,24.50
2017-09-17T04:14:39.975Z,24.40
2017-09-17T04:17:09.240Z,23.30
2017-09-17T04:19:38.541Z,24.40
2017-09-17T04:22:07.623Z,24.60
2017-09-17T04:24:37.334Z,24.90
2017-09-17T04:27:06.480Z,24.30
2017-09-17T04:29:35.188Z,24.30
2017-09-17T04:32:04.423Z,23.50
2017-09-17T04:34:33.899Z,23.80
2017-09-17T04:37:03.063Z,22.90
2017-09-17T04:39:32.260Z,23.90
2017-09-17T04:42:01.616Z,23.40
2017-09-17T04:44:30.827Z,23.40
2017-09-17T04:47:00.081Z,21.20
2017-09-17T04:49:28.844Z,23.30
2017-09-17T04:51:57.547Z,23.00
2017-09-17T04:54:26.748Z,23.20
2017-09-17T04:56:57.008Z,22.60
2017-09-17T04:59:27.402Z,22.80
2017-09-17T05:01:57.801Z,22.30
2017-09-17T05:04:27.291Z,22.20
2017-09-17T05:06:57.169Z,23.20
2017-09-17T05:09:27.465Z,24.50
2017-09-17T05:11:56.729Z,26.30
2017-09-17T05:14:27.161Z,26.50
2017-09-17T05:16:57.223Z,26.60
2017-09-17T05:19:27.350Z,27.80
2017-09-17T05:21:56.877Z,28.30
2017-09-17T05:24:25.600Z,28.40
2017-09-17T05:26:54.986Z,28.40
2017-09-17T05:29:24.096Z,30.50
2017-09-17T05:31:53.405Z,29.90
2017-09-17T05:34:22.800Z,30.20
2017-09-17T05:36:51.995Z,30.00
2017-09-17T05:39:21.216Z,30.90
2017-09-17T05:41:50.374Z,30.60
2017-09-17T05:44:19.808Z,31.10
2017-09-17T05:46:49.105Z,32.30
2017-09-17T05:49:18.570Z,32.30
2017-09-17T05:51:48.177Z,33.20
2017-09-17T05:54:17.474Z,33.10
2017-09-17T05:56:47.691Z,34.10
2017-09-17T05:59:17.122Z,33.70
2017-09-17T06:01:45.785Z,33.70
2017-09-17T06:04:15.194Z,34.40
2017-09-17T06:06:45.221Z,34.00
2017-09-17T06:09:14.556Z,33.90
2017-09-17T06:11:43.962Z,34.10
2017-09-17T06:14:13.150Z,34.20
2017-09-17T06:16:42.982Z,34.70
2017-09-17T06:19:12.433Z,34.60
2017-09-17T06:21:41.775Z,34.80
2017-09-17T06:24:11.176Z,34.80
2017-09-17T06:26:40.265Z,34.90
2017-09-17T06:29:09.696Z,35.70
2017-09-17T06:31:39.056Z,36.00
2017-09-17T06:34:08.216Z,35.70
2017-09-17T06:36:44.390Z,37.00
2017-09-17T06:39:13.589Z,36.70
2017-09-17T06:41:42.929Z,36.90
2017-09-17T06:44:12.327Z,36.70
2017-09-17T06:46:41.706Z,37.70
2017-09-17T06:49:11.030Z,36.80
2017-09-17T06:51:40.317Z,36.80
2017-09-17T06:54:09.763Z,37.80
2017-09-17T06:56:39.196Z,38.10
2017-09-17T06:59:09.240Z,38.10
2017-09-17T07:01:38.789Z,37.90
2017-09-17T07:04:08.348Z,38.60
2017-09-17T07:06:37.638Z,38.70
2017-09-17T07:09:06.976Z,38.70
2017-09-17T07:11:36.279Z,38.70
2017-09-17T07:14:06.115Z,40.00
2017-09-17T07:16:35.391Z,39.80
2017-09-17T07:19:06.256Z,39.80
2017-09-17T07:21:35.509Z,39.90
2017-09-17T07:24:04.689Z,39.40
2017-09-17T07:26:34.089Z,39.60
2017-09-17T07:29:04.123Z,39.40
2017-09-17T07:31:33.423Z,39.30
2017-09-17T07:34:03.635Z,39.50
2017-09-17T07:36:32.936Z,39.70
2017-09-17T07:39:01.947Z,39.80
2017-09-17T07:41:31.240Z,39.60
2017-09-17T07:44:01.645Z,39.60
2017-09-17T07:46:32.167Z,39.50
2017-09-17T07:49:02.297Z,39.60
2017-09-17T07:51:31.699Z,39.50
2017-09-17T07:54:01.682Z,40.00
2017-09-17T07:56:30.372Z,39.90
2017-09-17T07:58:59.473Z,39.50
2017-09-17T08:01:28.536Z,39.20
2017-09-17T08:03:57.801Z,39.60
2017-09-17T08:06:27.271Z,39.70
2017-09-17T08:08:56.440Z,39.80
2017-09-17T08:11:25.614Z,39.90
2017-09-17T08:13:55.033Z,40.20
2017-09-17T08:16:24.399Z,40.30
2017-09-17T08:18:54.575Z,40.70
2017-09-17T08:21:24.389Z,40.60
2017-09-17T08:23:53.458Z,40.70
2017-09-17T08:26:22.953Z,40.70
2017-09-17T08:28:52.654Z,40.70
2017-09-17T08:31:22.209Z,40.70
2017-09-17T08:33:51.769Z,40.50
2017-09-17T08:36:21.111Z,40.50
2017-09-17T08:38:50.975Z,40.50
2017-09-17T08:41:20.345Z,40.50
2017-09-17T08:43:49.775Z,40.50
2017-09-17T08:46:19.958Z,40.90
2017-09-17T08:48:50.071Z,40.80
2017-09-17T08:51:26.557Z,41.00
2017-09-17T08:53:59.630Z,41.00
2017-09-17T08:56:29.214Z,41.00
2017-09-17T08:58:58.350Z,41.20
2017-09-17T09:01:27.997Z,42.10
2017-09-17T09:03:57.295Z,42.60
2017-09-17T09:06:26.320Z,43.10
2017-09-17T09:08:55.716Z,42.90
2017-09-17T09:11:25.035Z,42.90
2017-09-17T09:13:54.192Z,43.00
2017-09-17T09:16:23.638Z,42.90
2017-09-17T09:18:52.913Z,43.00
2017-09-17T09:21:22.086Z,43.10
2017-09-17T09:23:52.509Z,42.80
2017-09-17T09:26:21.804Z,43.30
2017-09-17T09:28:51.138Z,44.20
2017-09-17T09:31:20.516Z,44.90
2017-09-17T09:33:49.656Z,44.70
2017-09-17T09:36:18.779Z,44.50
2017-09-17T09:38:48.149Z,44.50
2017-09-17T09:41:17.638Z,44.30
2017-09-17T09:43:47.138Z,44.30
2017-09-17T09:46:16.404Z,44.30
2017-09-17T09:48:45.667Z,44.20
2017-09-17T09:51:14.805Z,44.20
2017-09-17T09:53:44.299Z,44.00
2017-09-17T09:56:13.421Z,44.10
2017-09-17T09:58:43.820Z,44.40
2017-09-17T10:01:12.517Z,44.30
2017-09-17T10:03:41.652Z,44.10
2017-09-17T10:06:11.027Z,44.90
2017-09-17T10:08:39.955Z,44.20
2017-09-17T10:11:09.400Z,44.50
2017-09-17T10:13:38.695Z,44.30
2017-09-17T10:16:08.320Z,43.20
2017-09-17T10:18:38.227Z,40.60
2017-09-17T10:21:07.454Z,40.50
2017-09-17T10:23:36.779Z,39.70
2017-09-17T10:26:07.384Z,38.30
2017-09-17T10:28:37.682Z,37.30
2017-09-17T10:31:06.957Z,37.20
2017-09-17T10:33:36.154Z,36.40
2017-09-17T10:36:05.537Z,36.80
2017-09-17T10:38:34.943Z,36.30
2017-09-17T10:41:04.483Z,36.20
2017-09-17T10:43:33.672Z,35.30
2017-09-17T10:46:02.803Z,35.10
2017-09-17T10:48:32.892Z,35.10
2017-09-17T10:51:02.124Z,35.10
2017-09-17T10:53:31.440Z,34.50
2017-09-17T10:56:00.783Z,34.50
2017-09-17T10:58:30.101Z,34.90
2017-09-17T11:00:59.222Z,34.70
2017-09-17T11:03:29.374Z,34.30
2017-09-17T11:05:59.292Z,34.30
2017-09-17T11:08:28.054Z,35.20
2017-09-17T11:10:57.265Z,35.80
2017-09-17T11:13:26.483Z,36.10
2017-09-17T11:15:55.777Z,35.90
2017-09-17T11:18:25.357Z,35.90
2017-09-17T11:20:55.126Z,37.00
2017-09-17T11:23:24.468Z,36.40
2017-09-17T11:25:54.206Z,36.60
2017-09-17T11:28:25.959Z,36.80
2017-09-17T11:30:55.466Z,37.00
2017-09-17T11:33:24.853Z,37.30
2017-09-17T11:35:54.641Z,38.30
2017-09-17T11:38:24.770Z,38.50
2017-09-17T11:40:54.205Z,38.30
2017-09-17T11:43:23.818Z,38.40
2017-09-17T11:45:52.771Z,38.90
2017-09-17T11:48:22.219Z,38.90
2017-09-17T11:50:51.334Z,38.90
2017-09-17T11:53:20.429Z,39.20
2017-09-17T11:55:50.012Z,39.30
2017-09-17T11:58:19.479Z,39.30
2017-09-17T12:00:49.680Z,39.70
2017-09-17T12:03:18.963Z,39.60
2017-09-17T12:05:48.185Z,39.70
2017-09-17T12:08:17.441Z,40.00
2017-09-17T12:10:46.761Z,40.30
2017-09-17T12:13:15.903Z,40.80
2017-09-17T12:15:45.915Z,41.90
2017-09-17T12:18:15.932Z,42.40
2017-09-17T12:20:45.177Z,42.40
2017-09-17T12:23:14.450Z,43.20
2017-09-17T12:25:43.866Z,43.80
2017-09-17T12:28:13.327Z,44.20
2017-09-17T12:30:43.761Z,44.80
2017-09-17T12:33:12.885Z,45.30
2017-09-17T12:35:42.276Z,45.30
2017-09-17T12:38:11.532Z,45.30
2017-09-17T12:40:40.971Z,45.50
2017-09-17T12:43:11.150Z,45.60
2017-09-17T12:45:40.556Z,45.60
2017-09-17T12:48:09.617Z,45.40
2017-09-17T12:50:38.976Z,46.10
2017-09-17T12:53:08.395Z,46.00
2017-09-17T12:55:38.450Z,46.20
2017-09-17T12:58:07.547Z,46.10
2017-09-17T13:00:36.755Z,46.40
2017-09-17T13:03:06.194Z,46.80
2017-09-17T13:05:35.352Z,46.80
2017-09-17T13:08:04.809Z,46.50
2017-09-17T13:10:34.037Z,46.40
2017-09-17T13:13:03.278Z,46.80
2017-09-17T13:15:32.620Z,46.10
2017-09-17T13:18:02.116Z,46.10
2017-09-17T13:20:32.257Z,46.80
2017-09-17T13:23:02.244Z,47.20
2017-09-17T13:25:31.291Z,47.10
2017-09-17T13:28:00.404Z,47.30
2017-09-17T13:30:29.534Z,47.40
2017-09-17T13:32:59.325Z,47.60
2017-09-17T13:35:28.523Z,47.80
2017-09-17T13:37:57.853Z,47.70
2017-09-17T13:40:27.081Z,47.90
2017-09-17T13:42:56.806Z,48.70
2017-09-17T13:45:26.300Z,48.50
2017-09-17T13:47:55.818Z,48.60
2017-09-17T13:50:25.050Z,48.80
2017-09-17T13:52:54.327Z,49.00
2017-09-17T13:55:23.712Z,49.40
2017-09-17T13:57:53.028Z,49.60
2017-09-17T14:00:22.186Z,50.20
2017-09-17T14:02:51.647Z,50.30
2017-09-17T14:05:37.059Z,50.40
2017-09-17T14:08:26.316Z,50.30
2017-09-17T14:10:58.697Z,51.00
2017-09-17T14:13:28.112Z,51.00
2017-09-17T14:15:58.622Z,50.40
2017-09-17T14:18:27.932Z,50.30
2017-09-17T14:20:58.120Z,50.40
2017-09-17T14:23:27.397Z,50.20
2017-09-17T14:25:56.773Z,50.30
2017-09-17T14:28:26.060Z,50.10
2017-09-17T14:30:56.452Z,49.50
2017-09-17T14:33:27.099Z,49.40
2017-09-17T14:35:56.284Z,49.30
2017-09-17T14:38:25.632Z,49.20
2017-09-17T14:40:55.231Z,49.30
2017-09-17T14:43:24.613Z,48.50
2017-09-17T14:45:53.804Z,48.40
2017-09-17T14:48:23.056Z,47.90
2017-09-17T14:50:52.527Z,48.80
2017-09-17T14:53:21.887Z,48.00
2017-09-17T14:55:50.970Z,48.00
2017-09-17T14:58:20.046Z,48.30
2017-09-17T15:00:49.522Z,48.10
2017-09-17T15:03:19.952Z,47.60
2017-09-17T15:05:50.023Z,48.10
2017-09-17T15:08:19.422Z,48.00
2017-09-17T15:10:48.728Z,48.20
2017-09-17T15:13:18.785Z,48.20
2017-09-17T15:15:48.333Z,48.50
2017-09-17T15:18:17.545Z,48.80
2017-09-17T15:20:46.848Z,49.10
2017-09-17T15:23:16.667Z,49.50
2017-09-17T15:25:45.945Z,48.90
2017-09-17T15:28:15.073Z,48.50
2017-09-17T15:30:44.475Z,48.90
2017-09-17T15:33:13.683Z,48.30
2017-09-17T15:35:43.894Z,47.90
2017-09-17T15:38:13.299Z,47.90
2017-09-17T15:40:42.334Z,47.20
2017-09-17T15:43:11.551Z,47.40
2017-09-17T15:45:40.716Z,47.40
2017-09-17T15:48:10.926Z,47.00
2017-09-17T15:50:40.013Z,46.60
2017-09-17T15:53:09.375Z,47.10
2017-09-17T15:55:38.765Z,46.80
2017-09-17T15:58:07.797Z,47.00
2017-09-17T16:00:37.939Z,46.20
2017-09-17T16:03:07.037Z,45.80
2017-09-17T16:05:36.103Z,45.50
2017-09-17T16:08:05.628Z,43.00
2017-09-17T16:10:35.184Z,42.50
2017-09-17T16:13:04.473Z,41.40
2017-09-17T16:15:34.122Z,40.60
2017-09-17T16:18:03.402Z,39.60
2017-09-17T16:20:32.650Z,38.20
2017-09-17T16:23:01.880Z,35.40
2017-09-17T16:25:31.826Z,35.70
2017-09-17T16:28:01.185Z,35.70
2017-09-17T16:30:31.054Z,35.50
2017-09-17T16:33:00.332Z,34.70
2017-09-17T16:35:29.536Z,34.50
2017-09-17T16:37:59.870Z,34.40
2017-09-17T16:40:29.795Z,34.30
2017-09-17T16:42:59.195Z,33.30
2017-09-17T16:45:28.830Z,32.30
2017-09-17T16:47:57.769Z,31.50
2017-09-17T16:50:27.772Z,32.70
2017-09-17T16:52:56.963Z,31.90
2017-09-17T16:55:26.935Z,31.50
2017-09-17T16:57:56.252Z,31.40
2017-09-17T17:00:25.238Z,32.70
2017-09-17T17:02:54.876Z,32.20
2017-09-17T17:05:23.737Z,32.50
2017-09-17T17:07:52.709Z,32.50
2017-09-17T17:10:21.413Z,32.10
2017-09-17T17:12:50.573Z,31.20
2017-09-17T17:15:20.215Z,31.50
2017-09-17T17:17:49.789Z,30.10
2017-09-17T17:20:19.015Z,28.90
2017-09-17T17:22:48.316Z,29.00
2017-09-17T17:25:17.738Z,28.00
2017-09-17T17:27:46.923Z,27.70
2017-09-17T17:30:16.390Z,27.40
2017-09-17T17:32:45.849Z,27.20
2017-09-17T17:35:15.759Z,26.30
2017-09-17T17:37:45.078Z,26.20
2017-09-17T17:40:15.219Z,26.20
2017-09-17T17:42:44.635Z,26.10
2017-09-17T17:45:14.158Z,26.60
2017-09-17T17:47:43.611Z,27.00
2017-09-17T17:50:13.252Z,27.00
2017-09-17T17:52:42.354Z,27.30
2017-09-17T17:55:11.573Z,26.90
2017-09-17T17:57:40.813Z,26.80
2017-09-17T18:00:10.978Z,27.40
2017-09-17T18:02:40.281Z,27.30
2017-09-17T18:05:09.502Z,28.90
2017-09-17T18:07:38.543Z,27.80
2017-09-17T18:10:07.559Z,28.00
2017-09-17T18:12:37.222Z,27.30
2017-09-17T18:15:06.774Z,28.10
2017-09-17T18:17:36.367Z,26.90
2017-09-17T18:20:05.864Z,26.80
2017-09-17T18:22:35.867Z,27.70
2017-09-17T18:25:05.268Z,27.20
2017-09-17T18:27:34.614Z,27.10
2017-09-17T18:30:03.773Z,26.70
2017-09-17T18:32:32.839Z,26.80
2017-09-17T18:35:02.340Z,26.50
2017-09-17T18:37:31.647Z,26.50
2017-09-17T18:40:01.918Z,27.10
2017-09-17T18:42:32.473Z,27.10
2017-09-17T18:45:04.307Z,27.30
2017-09-17T18:47:37.912Z,27.80
2017-09-17T18:50:08.549Z,27.10
2017-09-17T18:52:42.062Z,27.80
2017-09-17T18:55:11.114Z,27.80
2017-09-17T18:57:40.410Z,27.30
2017-09-17T19:00:10.271Z,27.40
2017-09-17T19:02:40.249Z,27.50
2017-09-17T19:05:10.014Z,27.00
2017-09-17T19:07:39.962Z,25.80
2017-09-17T19:10:09.159Z,25.70
2017-09-17T19:12:40.485Z,26.70
2017-09-17T19:15:10.437Z,27.00
2017-09-17T19:17:40.773Z,26.70
2017-09-17T19:20:10.927Z,27.70
2017-09-17T19:22:40.141Z,27.40
2017-09-17T19:25:13.076Z,28.20
2017-09-17T19:27:46.648Z,29.60
2017-09-17T19:30:16.026Z,30.60
2017-09-17T19:32:45.480Z,29.10
2017-09-17T19:35:15.623Z,28.30
2017-09-17T19:37:46.923Z,27.70
2017-09-17T19:40:16.012Z,27.70
2017-09-17T19:42:53.884Z,27.60
2017-09-17T19:45:23.520Z,27.20
2017-09-17T19:47:52.959Z,27.40
2017-09-17T19:50:22.971Z,27.20
2017-09-17T19:52:52.368Z,28.00
2017-09-17T19:55:21.727Z,27.90
2017-09-17T19:57:51.282Z,28.20
2017-09-17T20:00:21.461Z,27.90
2017-09-17T20:02:50.816Z,27.90
2017-09-17T20:05:20.312Z,28.20
2017-09-17T20:07:50.647Z,29.10
2017-09-17T20:10:20.391Z,29.00
2017-09-17T20:12:49.979Z,28.40
2017-09-17T20:15:19.602Z,28.80
2017-09-17T20:20:30.070Z,27.00
2017-09-17T20:22:59.677Z,26.40
2017-09-17T20:25:29.829Z,27.20
2017-09-17T20:27:59.316Z,33.50
2017-09-17T20:30:30.215Z,31.00
2017-09-17T20:33:00.401Z,30.90
2017-09-17T20:35:29.829Z,30.90
2017-09-17T20:37:59.014Z,33.10
2017-09-17T20:40:28.159Z,31.40
2017-09-17T20:42:58.389Z,31.20
2017-09-17T20:45:27.691Z,29.60
2017-09-17T20:47:57.205Z,33.10
2017-09-17T20:50:26.618Z,29.80
2017-09-17T20:52:55.946Z,29.60
2017-09-17T20:55:25.403Z,29.70
2017-09-17T20:57:54.759Z,29.30
2017-09-17T21:00:24.249Z,28.90
2017-09-17T21:02:53.704Z,29.70
2017-09-17T21:05:23.090Z,29.10
2017-09-17T21:07:52.565Z,31.60
2017-09-17T21:10:21.671Z,30.00
2017-09-17T21:12:51.025Z,30.00
2017-09-17T21:15:20.431Z,30.30
2017-09-17T21:17:50.614Z,33.10
2017-09-17T21:20:20.751Z,32.90
2017-09-17T21:22:51.297Z,33.70
2017-09-17T21:25:20.895Z,33.70
2017-09-17T21:27:51.248Z,41.70
2017-09-17T21:30:20.940Z,41.40
2017-09-17T21:32:50.345Z,36.40
2017-09-17T21:35:19.546Z,36.30
2017-09-17T21:37:49.300Z,35.90
2017-09-17T21:40:19.162Z,34.70
2017-09-17T21:42:48.574Z,35.80
2017-09-17T21:45:19.991Z,32.10
2017-09-17T21:47:50.217Z,30.50
2017-09-17T21:50:20.531Z,29.80
2017-09-17T21:52:50.737Z,31.10
2017-09-17T21:55:20.597Z,31.10
2017-09-17T21:57:49.824Z,34.50
2017-09-17T22:00:19.281Z,35.50
2017-09-17T22:02:50.455Z,38.60
2017-09-17T22:05:19.864Z,40.50
2017-09-17T22:07:48.618Z,40.60
2017-09-17T22:10:19.023Z,45.40
2017-09-17T22:12:48.662Z,45.30
2017-09-17T22:15:18.163Z,44.10
2017-09-17T22:17:47.802Z,46.30
2017-09-17T22:20:17.396Z,48.80
2017-09-17T22:22:46.846Z,49.50
2017-09-17T22:25:15.583Z,51.60
2017-09-17T22:27:44.300Z,54.10
2017-09-17T22:30:13.012Z,55.20
2017-09-17T22:32:41.853Z,54.30
2017-09-17T22:35:10.550Z,58.30
2017-09-17T22:37:39.260Z,55.10
2017-09-17T22:40:08.947Z,57.20
2017-09-17T22:42:38.119Z,60.10
2017-09-17T22:45:07.514Z,61.30
2017-09-17T22:47:38.177Z,59.30
2017-09-17T22:50:07.713Z,59.30
2017-09-17T22:52:36.776Z,60.70
2017-09-17T22:55:06.114Z,59.10
2017-09-17T22:57:35.264Z,58.90
2017-09-17T23:00:04.580Z,60.70
2017-09-17T23:02:33.763Z,59.60
2017-09-17T23:05:03.417Z,61.80
2017-09-17T23:07:32.739Z,60.40
2017-09-17T23:10:02.156Z,62.00
2017-09-17T23:12:32.207Z,63.90
2017-09-17T23:15:01.543Z,63.80
2017-09-17T23:17:30.904Z,64.90
2017-09-17T23:20:00.162Z,68.00
2017-09-17T23:22:30.382Z,69.40
2017-09-17T23:24:59.560Z,69.30
2017-09-17T23:27:28.708Z,73.90
2017-09-17T23:29:58.988Z,71.80
2017-09-17T23:32:28.163Z,71.80
2017-09-17T23:35:05.403Z,74.40
2017-09-17T23:37:35.607Z,74.70
2017-09-17T23:40:04.792Z,74.70
2017-09-17T23:42:34.189Z,73.40
2017-09-17T23:45:03.392Z,73.20
2017-09-17T23:47:32.638Z,74.00
2017-09-17T23:50:02.899Z,74.50
2017-09-17T23:52:32.081Z,74.30
2017-09-17T23:55:01.803Z,74.30
2017-09-17T23:57:31.168Z,76.40
